createdAt,value
2023-03-12T00:02:01.141Z,4.60
2023-03-12T00:04:28.355Z,6.43
2023-03-12T00:06:54.978Z,7.00
2023-03-12T00:09:21.755Z,8.50
2023-03-12T00:11:48.483Z,5.90
2023-03-12T00:14:15.392Z,6.70
2023-03-12T00:16:42.058Z,6.93
2023-03-12T00:19:12.676Z,6.23
2023-03-12T00:21:39.718Z,8.97
2023-03-12T00:24:07.829Z,9.10
2023-03-12T00:26:34.582Z,6.13
2023-03-12T00:29:01.212Z,5.37
2023-03-12T00:31:30.147Z,6.27
2023-03-12T00:33:56.833Z,7.80
2023-03-12T00:36:28.774Z,6.70
2023-03-12T00:38:56.254Z,6.77
2023-03-12T00:41:24.583Z,5.80
2023-03-12T00:43:52.123Z,5.93
2023-03-12T00:46:19.371Z,4.83
2023-03-12T00:48:46.153Z,6.30
2023-03-12T00:51:12.805Z,9.37
2023-03-12T00:53:39.775Z,6.33
2023-03-12T00:56:07.217Z,4.37
2023-03-12T00:58:33.975Z,7.07
2023-03-12T01:01:00.712Z,4.37
2023-03-12T01:03:27.794Z,7.27
2023-03-12T01:05:57.109Z,5.67
2023-03-12T01:08:24.202Z,6.17
2023-03-12T01:10:51.455Z,12.80
2023-03-12T01:13:18.196Z,6.73
2023-03-12T01:15:44.828Z,8.00
2023-03-12T01:18:11.434Z,6.73
2023-03-12T01:20:38.476Z,4.93
2023-03-12T01:23:05.156Z,9.47
2023-03-12T01:25:33.984Z,11.23
2023-03-12T01:28:00.634Z,8.60
2023-03-12T01:30:27.534Z,8.03
2023-03-12T01:32:54.436Z,5.20
2023-03-12T01:35:21.132Z,6.43
2023-03-12T01:37:47.784Z,5.80
2023-03-12T01:40:16.767Z,8.87
2023-03-12T01:42:43.482Z,8.40
2023-03-12T01:45:47.955Z,7.63
2023-03-12T01:48:17.462Z,8.30
2023-03-12T01:50:44.066Z,6.80
2023-03-12T01:53:11.059Z,9.10
2023-03-12T01:55:38.026Z,13.00
2023-03-12T01:58:06.612Z,25.07
2023-03-12T02:00:33.243Z,7.90
2023-03-12T02:03:07.338Z,8.13
2023-03-12T02:05:43.646Z,11.40
2023-03-12T02:08:11.854Z,5.40
2023-03-12T02:10:38.498Z,7.63
2023-03-12T02:13:05.614Z,9.87
2023-03-12T02:15:34.526Z,6.73
2023-03-12T02:18:03.502Z,8.33
2023-03-12T02:20:54.755Z,13.13
2023-03-12T02:23:35.968Z,6.80
2023-03-12T02:26:05.414Z,14.07
2023-03-12T02:28:42.267Z,19.70
2023-03-12T02:31:10.615Z,12.93
2023-03-12T02:33:37.289Z,16.80
2023-03-12T02:36:04.315Z,10.90
2023-03-12T02:38:45.611Z,15.17
2023-03-12T02:41:34.002Z,9.50
2023-03-12T02:44:02.982Z,15.20
2023-03-12T02:46:36.328Z,15.53
2023-03-12T02:49:03.887Z,14.60
2023-03-12T02:51:30.536Z,11.57
2023-03-12T02:53:57.277Z,9.57
2023-03-12T02:56:26.280Z,27.70
2023-03-12T02:58:53.747Z,11.47
2023-03-12T03:01:20.806Z,9.13
2023-03-12T03:03:48.230Z,17.33
2023-03-12T03:06:15.073Z,11.23
2023-03-12T03:08:41.924Z,6.40
2023-03-12T03:11:09.103Z,11.07
2023-03-12T03:13:35.715Z,10.13
2023-03-12T03:16:03.807Z,9.30
2023-03-12T03:18:31.812Z,14.50
2023-03-12T03:21:04.182Z,11.63
2023-03-12T03:23:31.065Z,7.40
2023-03-12T03:25:58.179Z,7.47
2023-03-12T03:28:26.902Z,9.53
2023-03-12T03:30:58.071Z,8.43
2023-03-12T03:33:25.179Z,7.90
2023-03-12T03:35:51.890Z,12.93
2023-03-12T03:38:18.527Z,8.23
2023-03-12T03:40:45.521Z,6.60
2023-03-12T03:43:12.111Z,8.73
2023-03-12T03:45:38.831Z,7.10
2023-03-12T03:48:05.871Z,6.40
2023-03-12T03:50:32.716Z,6.07
2023-03-12T03:52:59.298Z,11.97
2023-03-12T03:55:25.919Z,10.40
2023-03-12T03:57:52.549Z,6.47
2023-03-12T04:00:19.524Z,10.27
2023-03-12T04:02:46.140Z,5.00
2023-03-12T04:05:12.860Z,6.90
2023-03-12T04:07:39.471Z,6.27
2023-03-12T04:10:06.655Z,6.20
2023-03-12T04:12:33.288Z,12.70
2023-03-12T04:14:59.888Z,12.03
2023-03-12T04:17:26.505Z,11.30
2023-03-12T04:19:53.211Z,5.67
2023-03-12T04:22:19.858Z,10.10
2023-03-12T04:24:46.485Z,7.77
2023-03-12T04:27:13.077Z,8.70
2023-03-12T04:29:40.728Z,6.90
2023-03-12T04:32:07.808Z,9.93
2023-03-12T04:34:34.407Z,6.53
2023-03-12T04:37:03.225Z,10.50
2023-03-12T04:39:29.894Z,13.03
2023-03-12T04:41:56.530Z,7.27
2023-03-12T04:44:23.201Z,9.80
2023-03-12T04:46:49.906Z,14.67
2023-03-12T04:49:16.601Z,5.50
2023-03-12T04:51:43.287Z,18.33
2023-03-12T04:54:09.903Z,6.80
2023-03-12T04:56:36.565Z,5.23
2023-03-12T04:59:03.256Z,8.97
2023-03-12T05:01:32.404Z,10.20
2023-03-12T05:03:59.199Z,9.10
2023-03-12T05:06:26.192Z,7.50
2023-03-12T05:08:52.942Z,11.80
2023-03-12T05:11:20.041Z,7.80
2023-03-12T05:13:47.311Z,13.03
2023-03-12T05:16:14.848Z,8.13
2023-03-12T05:18:42.346Z,7.60
2023-03-12T05:21:12.989Z,9.03
2023-03-12T05:23:42.382Z,16.47
2023-03-12T05:26:17.615Z,10.50
2023-03-12T05:28:44.410Z,8.73
2023-03-12T05:31:12.355Z,7.40
2023-03-12T05:33:39.323Z,7.57
2023-03-12T05:36:06.407Z,9.67
2023-03-12T05:38:33.017Z,5.90
2023-03-12T05:41:00.044Z,5.30
2023-03-12T05:43:27.841Z,7.47
2023-03-12T05:45:58.112Z,10.77
2023-03-12T05:48:24.766Z,9.87
2023-03-12T05:50:51.391Z,9.43
2023-03-12T05:53:18.118Z,10.40
2023-03-12T05:55:44.781Z,6.27
2023-03-12T05:58:11.363Z,11.43
2023-03-12T06:00:38.852Z,8.07
2023-03-12T06:03:05.783Z,9.80
2023-03-12T06:05:34.114Z,10.80
2023-03-12T06:08:01.556Z,15.67
2023-03-12T06:10:28.883Z,14.30
2023-03-12T06:12:55.561Z,11.40
2023-03-12T06:15:22.170Z,13.53
2023-03-12T06:17:48.825Z,14.70
2023-03-12T06:20:15.916Z,21.67
2023-03-12T06:22:42.568Z,13.87
2023-03-12T06:25:09.815Z,15.17
2023-03-12T06:27:36.557Z,15.73
2023-03-12T06:30:04.411Z,16.13
2023-03-12T06:32:31.169Z,19.47
2023-03-12T06:35:00.513Z,10.80
2023-03-12T06:37:28.065Z,12.43
2023-03-12T06:39:54.706Z,14.00
2023-03-12T06:42:22.492Z,9.30
2023-03-12T06:44:50.081Z,12.00
2023-03-12T06:47:17.792Z,15.40
2023-03-12T06:49:44.800Z,10.17
2023-03-12T06:52:11.607Z,14.53
2023-03-12T06:54:38.224Z,9.53
2023-03-12T06:57:04.961Z,10.33
2023-03-12T06:59:31.617Z,11.43
2023-03-12T07:01:58.290Z,11.73
2023-03-12T07:04:25.055Z,11.20
2023-03-12T07:06:51.787Z,16.07
2023-03-12T07:09:19.644Z,15.40
2023-03-12T07:11:46.567Z,12.57
2023-03-12T07:14:14.018Z,11.90
2023-03-12T07:16:40.866Z,12.40
2023-03-12T07:19:07.493Z,10.83
2023-03-12T07:21:34.166Z,11.03
2023-03-12T07:24:01.068Z,6.37
2023-03-12T07:26:27.833Z,7.70
2023-03-12T07:28:54.467Z,8.23
2023-03-12T07:31:21.639Z,8.47
2023-03-12T07:33:48.336Z,9.00
2023-03-12T07:36:15.188Z,18.40
2023-03-12T07:38:41.902Z,6.60
2023-03-12T07:41:08.843Z,13.10
2023-03-12T07:43:35.593Z,5.90
2023-03-12T07:46:03.054Z,10.60
2023-03-12T07:48:29.708Z,10.90
2023-03-12T07:50:56.355Z,10.57
2023-03-12T07:53:23.070Z,11.53
2023-03-12T07:55:50.280Z,11.43
2023-03-12T07:58:17.488Z,7.97
2023-03-12T08:00:44.888Z,8.83
2023-03-12T08:03:12.190Z,4.40
2023-03-12T08:05:39.151Z,4.00
2023-03-12T08:08:06.159Z,9.87
2023-03-12T08:10:32.860Z,6.30
2023-03-12T08:12:59.570Z,9.70
2023-03-12T08:15:26.524Z,6.87
2023-03-12T08:17:53.141Z,9.43
2023-03-12T08:20:19.825Z,13.03
2023-03-12T08:22:46.498Z,8.83
2023-03-12T08:25:13.154Z,9.30
2023-03-12T08:27:39.820Z,6.23
2023-03-12T08:30:07.496Z,5.23
2023-03-12T08:32:34.714Z,9.13
2023-03-12T08:35:01.482Z,4.57
2023-03-12T08:37:28.202Z,14.33
2023-03-12T08:39:54.919Z,9.53
2023-03-12T08:42:21.633Z,10.77
2023-03-12T08:44:48.326Z,8.83
2023-03-12T08:47:15.078Z,5.17
2023-03-12T08:49:41.716Z,3.70
2023-03-12T08:52:08.399Z,5.13
2023-03-12T08:54:35.071Z,12.20
2023-03-12T08:57:01.840Z,8.57
2023-03-12T08:59:28.466Z,8.10
2023-03-12T09:01:55.138Z,7.73
2023-03-12T09:04:21.866Z,4.80
2023-03-12T09:06:48.536Z,8.50
2023-03-12T09:09:15.439Z,4.17
2023-03-12T09:11:42.536Z,8.30
2023-03-12T09:16:55.978Z,8.13
2023-03-12T09:19:22.908Z,9.80
2023-03-12T09:21:49.561Z,4.57
2023-03-12T09:24:16.191Z,5.43
2023-03-12T09:26:42.814Z,4.73
2023-03-12T09:29:09.446Z,7.27
2023-03-12T09:31:36.484Z,7.83
2023-03-12T09:34:04.650Z,6.40
2023-03-12T09:36:31.576Z,7.40
2023-03-12T09:38:58.372Z,10.73
2023-03-12T09:41:31.586Z,10.30
2023-03-12T09:44:19.095Z,8.40
2023-03-12T09:47:01.111Z,6.83
2023-03-12T09:49:41.758Z,10.67
2023-03-12T09:52:22.374Z,11.77
2023-03-12T09:55:03.659Z,3.70
2023-03-12T09:57:30.616Z,6.07
2023-03-12T09:59:57.753Z,8.17
2023-03-12T10:02:53.040Z,6.60
2023-03-12T10:05:40.016Z,10.23
2023-03-12T10:08:29.750Z,2.93
2023-03-12T10:11:28.646Z,7.57
2023-03-12T10:14:24.273Z,7.00
2023-03-12T10:16:56.968Z,5.43
2023-03-12T10:19:53.044Z,14.77
2023-03-12T10:22:28.888Z,11.80
2023-03-12T10:24:55.440Z,11.03
2023-03-12T10:27:25.735Z,8.07
2023-03-12T10:29:53.571Z,5.13
2023-03-12T10:32:38.951Z,2.70
2023-03-12T10:35:22.055Z,4.93
2023-03-12T10:37:56.259Z,5.53
2023-03-12T10:40:34.123Z,5.83
2023-03-12T10:43:01.892Z,3.47
2023-03-12T10:45:54.380Z,6.33
2023-03-12T10:48:24.476Z,5.13
2023-03-12T10:51:06.526Z,5.90
2023-03-12T10:53:48.024Z,6.10
2023-03-12T10:56:18.199Z,3.20
2023-03-12T10:58:50.653Z,6.53
2023-03-12T11:01:31.341Z,3.90
2023-03-12T11:04:18.718Z,3.60
2023-03-12T11:07:05.384Z,4.60
2023-03-12T11:09:32.097Z,3.13
2023-03-12T11:11:58.740Z,3.90
2023-03-12T11:14:28.000Z,6.10
2023-03-12T11:16:56.617Z,5.17
2023-03-12T11:19:34.342Z,6.83
2023-03-12T11:22:11.464Z,4.83
2023-03-12T11:24:56.119Z,7.07
2023-03-12T11:27:43.769Z,7.70
2023-03-12T11:30:23.332Z,6.47
2023-03-12T11:32:50.923Z,5.00
2023-03-12T11:35:25.355Z,5.27
2023-03-12T11:38:25.505Z,4.83
2023-03-12T11:41:19.581Z,5.83
2023-03-12T11:43:48.876Z,6.80
2023-03-12T11:46:29.499Z,5.03
2023-03-12T11:49:09.689Z,12.70
2023-03-12T11:52:03.025Z,10.73
2023-03-12T11:54:54.716Z,7.87
2023-03-12T11:57:43.694Z,6.80
2023-03-12T12:00:14.033Z,15.33
2023-03-12T12:02:44.042Z,5.03
2023-03-12T12:05:29.098Z,5.30
2023-03-12T12:08:07.362Z,6.43
2023-03-12T12:10:54.267Z,3.83
2023-03-12T12:13:33.456Z,5.10
2023-03-12T12:16:31.552Z,8.03
2023-03-12T12:19:39.800Z,6.07
2023-03-12T12:22:33.768Z,2.50
2023-03-12T12:25:23.737Z,7.90
2023-03-12T12:27:57.303Z,4.20
2023-03-12T12:30:59.717Z,5.33
2023-03-12T12:33:45.048Z,2.37
2023-03-12T12:36:13.557Z,2.20
2023-03-12T12:38:45.800Z,4.10
2023-03-12T12:41:25.353Z,6.40
2023-03-12T12:44:02.282Z,5.50
2023-03-12T12:46:35.323Z,8.90
2023-03-12T12:49:19.176Z,9.20
2023-03-12T12:51:53.506Z,3.80
2023-03-12T12:55:04.539Z,5.00
2023-03-12T12:57:38.509Z,5.80
2023-03-12T13:00:14.568Z,7.20
2023-03-12T13:02:44.463Z,7.50
2023-03-12T13:05:36.743Z,2.30
2023-03-12T13:08:05.102Z,2.10
2023-03-12T13:10:34.709Z,4.83
2023-03-12T13:13:09.147Z,6.03
2023-03-12T13:15:40.599Z,2.30
2023-03-12T13:18:28.020Z,6.43
2023-03-12T13:20:54.553Z,1.83
2023-03-12T13:23:23.981Z,3.37
2023-03-12T13:26:23.226Z,1.97
2023-03-12T13:28:56.890Z,1.93
2023-03-12T13:31:29.413Z,3.53
2023-03-12T13:34:20.008Z,5.27
2023-03-12T13:36:50.504Z,3.40
2023-03-12T13:39:17.236Z,4.53
2023-03-12T13:41:49.935Z,1.73
2023-03-12T13:44:38.318Z,4.30
2023-03-12T13:47:10.869Z,1.43
2023-03-12T13:49:54.871Z,4.33
2023-03-12T13:52:50.425Z,4.90
2023-03-12T13:55:28.835Z,3.73
2023-03-12T13:58:00.906Z,5.17
2023-03-12T14:00:36.290Z,5.30
2023-03-12T14:03:38.650Z,7.07
2023-03-12T14:06:09.963Z,7.30
2023-03-12T14:09:24.079Z,4.00
2023-03-12T14:12:15.611Z,4.33
2023-03-12T14:15:16.177Z,4.60
2023-03-12T14:17:44.504Z,9.20
2023-03-12T14:20:18.944Z,9.30
2023-03-12T14:22:52.470Z,4.90
2023-03-12T14:25:38.702Z,5.10
2023-03-12T14:28:13.378Z,2.23
2023-03-12T14:30:50.117Z,5.50
2023-03-12T14:33:17.975Z,7.57
2023-03-12T14:35:55.703Z,1.70
2023-03-12T14:38:30.802Z,1.70
2023-03-12T14:41:13.306Z,1.70
2023-03-12T14:43:41.815Z,4.57
2023-03-12T14:46:34.723Z,5.87
2023-03-12T14:49:01.435Z,2.77
2023-03-12T14:51:30.759Z,7.60
2023-03-12T14:54:02.601Z,2.73
2023-03-12T14:56:32.939Z,2.13
2023-03-12T14:59:02.628Z,7.23
2023-03-12T15:01:34.637Z,3.40
2023-03-12T15:04:04.772Z,1.80
2023-03-12T15:06:40.448Z,3.07
2023-03-12T15:09:08.001Z,3.13
2023-03-12T15:11:37.112Z,4.90
2023-03-12T15:14:14.295Z,10.97
2023-03-12T15:16:42.278Z,2.30
2023-03-12T15:19:13.703Z,7.43
2023-03-12T15:21:40.538Z,5.53
2023-03-12T15:24:12.018Z,6.90
2023-03-12T15:26:39.537Z,2.23
2023-03-12T15:29:28.239Z,2.60
2023-03-12T15:32:00.549Z,3.20
2023-03-12T15:34:32.020Z,6.73
2023-03-12T15:37:00.853Z,4.47
2023-03-12T15:39:32.190Z,4.30
2023-03-12T15:42:08.776Z,2.70
2023-03-12T15:44:57.049Z,2.17
2023-03-12T15:47:32.914Z,2.50
2023-03-12T15:50:04.674Z,2.87
2023-03-12T15:52:34.274Z,4.33
2023-03-12T15:55:12.761Z,4.70
2023-03-12T15:57:51.625Z,5.43
2023-03-12T16:00:24.787Z,5.67
2023-03-12T16:03:05.957Z,5.07
2023-03-12T16:05:38.953Z,7.60
2023-03-12T16:08:21.466Z,4.50
2023-03-12T16:10:50.006Z,5.27
2023-03-12T16:13:20.109Z,5.33
2023-03-12T16:15:48.033Z,5.30
2023-03-12T16:18:20.117Z,5.43
2023-03-12T16:20:47.922Z,3.90
2023-03-12T16:23:15.101Z,2.93
2023-03-12T16:25:47.563Z,7.73
2023-03-12T16:28:16.996Z,5.00
2023-03-12T16:30:43.710Z,6.37
2023-03-12T16:33:16.138Z,5.17
2023-03-12T16:35:43.014Z,3.90
2023-03-12T16:38:09.813Z,4.57
2023-03-12T16:40:39.321Z,5.43
2023-03-12T16:43:07.546Z,7.20
2023-03-12T16:45:35.713Z,4.33
2023-03-12T16:48:05.597Z,14.53
2023-03-12T16:50:32.757Z,3.87
2023-03-12T16:52:59.792Z,11.00
2023-03-12T16:55:29.349Z,6.43
2023-03-12T16:58:00.134Z,4.33
2023-03-12T17:00:33.012Z,9.20
2023-03-12T17:02:59.982Z,4.73
2023-03-12T17:05:29.141Z,4.20
2023-03-12T17:07:56.653Z,5.90
2023-03-12T17:10:23.728Z,5.87
2023-03-12T17:12:50.775Z,4.10
2023-03-12T17:15:21.420Z,4.87
2023-03-12T17:17:49.456Z,5.77
2023-03-12T17:20:23.236Z,5.50
2023-03-12T17:22:49.907Z,4.60
2023-03-12T17:25:28.723Z,6.30
2023-03-12T17:27:58.230Z,6.63
2023-03-12T17:30:26.126Z,4.33
2023-03-12T17:32:53.271Z,8.50
2023-03-12T17:35:20.482Z,11.80
2023-03-12T17:37:48.482Z,5.93
2023-03-12T17:40:15.793Z,9.50
2023-03-12T17:42:42.438Z,5.53
2023-03-12T17:45:10.125Z,6.03
2023-03-12T17:47:37.274Z,9.23
2023-03-12T17:50:05.977Z,7.43
2023-03-12T17:52:33.130Z,8.70
2023-03-12T17:55:00.481Z,10.10
2023-03-12T17:57:27.468Z,8.60
2023-03-12T17:59:54.108Z,9.33
2023-03-12T18:02:21.278Z,8.17
2023-03-12T18:04:47.961Z,7.20
2023-03-12T18:07:14.821Z,6.33
2023-03-12T18:09:41.438Z,10.87
2023-03-12T18:12:08.220Z,30.37
2023-03-12T18:14:34.992Z,10.80
2023-03-12T18:17:01.641Z,10.70
2023-03-12T18:19:29.281Z,7.53
2023-03-12T18:21:55.985Z,13.93
2023-03-12T18:24:22.583Z,13.20
2023-03-12T18:26:51.500Z,18.57
2023-03-12T18:29:18.241Z,17.00
2023-03-12T18:31:44.956Z,17.67
2023-03-12T18:34:11.622Z,15.27
2023-03-12T18:36:38.364Z,24.50
2023-03-12T18:39:06.456Z,23.20
2023-03-12T18:41:33.311Z,23.37
2023-03-12T18:44:00.680Z,23.30
2023-03-12T18:46:27.959Z,17.73
2023-03-12T18:48:54.930Z,22.17
2023-03-12T18:51:21.662Z,15.00
2023-03-12T18:53:48.368Z,26.63
2023-03-12T18:56:15.271Z,20.50
2023-03-12T18:58:42.014Z,29.23
2023-03-12T19:01:08.699Z,31.77
2023-03-12T19:03:36.359Z,28.20
2023-03-12T19:06:15.522Z,41.47
2023-03-12T19:08:42.948Z,30.60
2023-03-12T19:11:12.584Z,30.03
2023-03-12T19:13:40.085Z,35.90
2023-03-12T19:16:09.709Z,41.83
2023-03-12T19:18:38.136Z,43.33
2023-03-12T19:21:07.224Z,30.40
2023-03-12T19:23:33.918Z,55.00
2023-03-12T19:26:00.496Z,36.37
2023-03-12T19:28:27.280Z,33.77
2023-03-12T19:31:03.439Z,48.93
2023-03-12T19:33:30.511Z,48.53
2023-03-12T19:35:57.438Z,45.00
2023-03-12T19:38:24.184Z,52.23
2023-03-12T19:40:54.243Z,51.00
2023-03-12T19:43:22.847Z,59.70
2023-03-12T19:45:49.787Z,59.97
2023-03-12T19:48:16.811Z,50.43
2023-03-12T19:50:46.223Z,66.13
2023-03-12T19:53:13.372Z,48.10
2023-03-12T19:55:39.991Z,51.03
2023-03-12T19:58:08.322Z,61.37
2023-03-12T20:00:35.028Z,54.30
2023-03-12T20:03:01.809Z,63.57
2023-03-12T20:05:28.539Z,68.20
2023-03-12T20:07:55.159Z,57.93
2023-03-12T20:10:21.966Z,71.13
2023-03-12T20:12:48.629Z,50.03
2023-03-12T20:15:15.590Z,73.27
2023-03-12T20:17:42.189Z,64.83
2023-03-12T20:20:09.642Z,61.30
2023-03-12T20:22:36.705Z,73.03
2023-03-12T20:25:05.483Z,79.37
2023-03-12T20:27:34.133Z,48.10
2023-03-12T20:30:00.975Z,59.33
2023-03-12T20:32:28.721Z,63.97
2023-03-12T20:34:55.591Z,62.30
2023-03-12T20:37:22.729Z,80.77
2023-03-12T20:39:49.409Z,66.97
2023-03-12T20:42:16.075Z,59.03
2023-03-12T20:44:42.780Z,54.70
2023-03-12T20:47:09.608Z,67.73
2023-03-12T20:49:36.306Z,52.00
2023-03-12T20:52:03.429Z,59.87
2023-03-12T20:54:30.289Z,48.03
2023-03-12T20:56:57.163Z,52.57
2023-03-12T20:59:23.894Z,66.67
2023-03-12T21:01:50.655Z,47.30
2023-03-12T21:04:17.461Z,54.90
2023-03-12T21:06:45.022Z,49.90
2023-03-12T21:09:11.663Z,46.53
2023-03-12T21:11:40.111Z,57.70
2023-03-12T21:14:06.879Z,43.90
2023-03-12T21:16:33.768Z,52.00
2023-03-12T21:19:00.529Z,62.47
2023-03-12T21:21:27.310Z,50.80
2023-03-12T21:23:54.226Z,49.17
2023-03-12T21:26:21.950Z,45.13
2023-03-12T21:28:48.637Z,36.70
2023-03-12T21:31:17.211Z,41.10
2023-03-12T21:33:44.028Z,42.30
2023-03-12T21:36:12.736Z,54.33
2023-03-12T21:38:40.812Z,29.67
2023-03-12T21:41:09.802Z,36.83
2023-03-12T21:43:37.025Z,49.60
2023-03-12T21:46:26.692Z,47.23
2023-03-12T21:48:53.456Z,40.53
2023-03-12T21:51:22.139Z,25.70
2023-03-12T21:53:56.460Z,47.50
2023-03-12T21:56:26.373Z,30.23
2023-03-12T21:58:53.010Z,35.20
2023-03-12T22:01:19.742Z,42.10
2023-03-12T22:03:47.083Z,40.87
2023-03-12T22:06:15.141Z,40.73
2023-03-12T22:08:42.755Z,50.47
2023-03-12T22:11:10.288Z,53.00
2023-03-12T22:13:37.435Z,49.10
2023-03-12T22:16:07.783Z,36.07
2023-03-12T22:18:39.456Z,41.57
2023-03-12T22:21:07.719Z,31.23
2023-03-12T22:23:38.139Z,70.07
2023-03-12T22:26:06.385Z,43.70
2023-03-12T22:28:33.870Z,37.50
2023-03-12T22:31:03.612Z,36.53
2023-03-12T22:33:30.854Z,41.60
2023-03-12T22:35:57.713Z,30.93
2023-03-12T22:38:24.853Z,33.53
2023-03-12T22:40:53.704Z,31.17
2023-03-12T22:43:21.673Z,44.50
2023-03-12T22:45:53.311Z,34.70
2023-03-12T22:48:20.084Z,45.60
2023-03-12T22:50:54.122Z,38.63
2023-03-12T22:53:20.783Z,37.53
2023-03-12T22:55:47.406Z,32.27
2023-03-12T22:58:14.945Z,38.53
2023-03-12T23:00:41.548Z,42.63
2023-03-12T23:03:08.127Z,36.93
2023-03-12T23:05:34.878Z,29.83
2023-03-12T23:08:01.575Z,37.97
2023-03-12T23:10:28.156Z,36.23
2023-03-12T23:12:54.730Z,37.93
2023-03-12T23:15:24.562Z,47.80
2023-03-12T23:17:55.622Z,50.70
2023-03-12T23:20:23.730Z,39.00
2023-03-12T23:22:50.622Z,44.43
2023-03-12T23:25:17.324Z,39.53
2023-03-12T23:27:43.902Z,28.70
2023-03-12T23:30:11.458Z,59.40
2023-03-12T23:32:38.079Z,39.67
2023-03-12T23:35:05.056Z,21.10
2023-03-12T23:37:31.743Z,27.63
2023-03-12T23:39:58.364Z,34.70
2023-03-12T23:42:27.223Z,22.53
2023-03-12T23:44:53.837Z,22.53
2023-03-12T23:47:20.410Z,34.87
2023-03-12T23:49:46.992Z,36.70
2023-03-12T23:52:13.612Z,23.57
2023-03-12T23:54:40.261Z,23.23
2023-03-12T23:57:06.885Z,16.33
2023-03-12T23:59:33.497Z,23.83
